KICT

Wichita Dwight D Eisenhower National Airport

Wichita, Kansas, USA
METAR KICT 171353Z 00000KT 10SM CLR M05/M06 A3030 RMK AO2 SLP271 T10501056
Observed Flight Rules
Dec-17 @ 13:53 UTC (an hour ago) Visual Flight Rules
Visibility Clouds
10 miles
  • Clear skies
Temperatures Readings
Current -5°C / 23°F
Dewpoint -6°C / 21°F
Humidity 93%
Altimeter 30.3" Hg
Pressure 1027.1 hPa
Elevation 407
METAR KICT 171353Z 00000KT 10SM CLR M05/M06 A3030 RMK AO2 SLP271 T10501056
Observed Flight Rules
Dec-17 @ 13:53 UTC
(an hour ago)
VFR
Clouds
  • Clear skies
Temperature Dewpoint
-5°C / 23°F -6°C / 21°F
Humidity Altimeter Pressure
93% 30.3" Hg 1027.1 hPa